createdAt,value
2023-01-04T00:11:24.238Z,81.94
2023-01-04T00:35:44.482Z,81.98
2023-01-04T00:41:56.640Z,81.98
2023-01-04T01:11:24.062Z,81.6
2023-01-04T01:33:22.986Z,82.92
2023-01-04T01:41:23.934Z,82.92
2023-01-04T02:11:23.857Z,87.29
2023-01-04T02:41:23.838Z,89.74
2023-01-04T03:11:23.803Z,92.73
2023-01-04T03:41:23.710Z,94.87
2023-01-04T04:11:22.763Z,95.33
2023-01-04T04:41:23.601Z,95.36
2023-01-04T05:11:23.457Z,95.88
2023-01-04T05:41:23.323Z,96.45
2023-01-04T06:01:22.573Z,96.28
2023-01-04T06:11:27.498Z,96.28
2023-01-04T06:41:23.188Z,95.76
2023-01-04T07:11:23.101Z,95.06
2023-01-04T07:41:22.985Z,95.44
2023-01-04T08:11:22.873Z,95.75
2023-01-04T08:32:22.263Z,96.26
2023-01-04T08:41:55.830Z,96.26
2023-01-04T08:53:22.240Z,95.94
2023-01-04T09:06:22.130Z,95.94
2023-01-04T09:11:22.709Z,95.94
2023-01-04T09:41:22.584Z,94.27
2023-01-04T10:11:22.445Z,94.83
2023-01-04T10:41:22.314Z,95.25
2023-01-04T11:11:22.238Z,96.24
2023-01-04T11:41:22.112Z,96.96
2023-01-04T12:11:22.025Z,96.8
2023-01-04T12:41:21.935Z,96.1
2023-01-04T13:11:21.928Z,98.32
2023-01-04T13:41:21.820Z,98.54
2023-01-04T14:11:21.709Z,98.42
2023-01-04T14:41:21.588Z,98.97
2023-01-04T15:11:21.441Z,98.9
2023-01-04T15:41:21.416Z,99.67
2023-01-04T16:11:21.398Z,99.76
2023-01-04T16:41:21.307Z,98.64
2023-01-04T17:41:21.220Z,96.85
2023-01-04T18:11:21.131Z,99.04
2023-01-04T18:41:20.975Z,98.84
2023-01-04T19:41:20.737Z,95.63
2023-01-04T20:02:20.886Z,94.01
2023-01-04T20:11:20.707Z,94.01
2023-01-04T20:41:20.645Z,92.46
2023-01-04T21:11:20.597Z,91.07
2023-01-04T21:41:20.366Z,91.01
2023-01-04T22:11:20.244Z,89.08
2023-01-04T22:41:20.118Z,89.16
2023-01-04T23:11:20.027Z,88.18
2023-01-04T23:41:19.879Z,87.61
